sensor_id;sensor_type;location;lat;lon;timestamp;P1;durP1;ratioP1;P2;durP2;ratioP2
59308;SDS011;48433;53.016;-2.260;2023-05-07T00:02:15;32.92;;;16.10;;
59308;SDS011;48433;53.016;-2.260;2023-05-07T00:04:43;34.85;;;16.58;;
59308;SDS011;48433;53.016;-2.260;2023-05-07T00:07:11;34.97;;;18.73;;
59308;SDS011;48433;53.016;-2.260;2023-05-07T00:09:38;35.60;;;18.77;;
59308;SDS011;48433;53.016;-2.260;2023-05-07T00:12:07;37.88;;;19.95;;
59308;SDS011;48433;53.016;-2.260;2023-05-07T00:14:34;35.22;;;20.10;;
59308;SDS011;48433;53.016;-2.260;2023-05-07T00:17:02;41.55;;;21.10;;
59308;SDS011;48433;53.016;-2.260;2023-05-07T00:19:30;39.42;;;20.58;;
59308;SDS011;48433;53.016;-2.260;2023-05-07T00:21:58;47.05;;;21.70;;
59308;SDS011;48433;53.016;-2.260;2023-05-07T00:24:26;50.90;;;22.80;;
59308;SDS011;48433;53.016;-2.260;2023-05-07T00:26:54;46.60;;;23.17;;
59308;SDS011;48433;53.016;-2.260;2023-05-07T00:29:21;55.13;;;25.25;;
59308;SDS011;48433;53.016;-2.260;2023-05-07T00:31:49;56.05;;;27.38;;
59308;SDS011;48433;53.016;-2.260;2023-05-07T00:34:18;64.32;;;28.52;;
59308;SDS011;48433;53.016;-2.260;2023-05-07T00:36:46;58.53;;;28.60;;
59308;SDS011;48433;53.016;-2.260;2023-05-07T00:39:14;63.67;;;27.77;;
59308;SDS011;48433;53.016;-2.260;2023-05-07T00:41:41;65.32;;;29.08;;
59308;SDS011;48433;53.016;-2.260;2023-05-07T00:44:09;83.68;;;30.25;;
59308;SDS011;48433;53.016;-2.260;2023-05-07T00:46:37;65.80;;;29.75;;
59308;SDS011;48433;53.016;-2.260;2023-05-07T00:49:05;63.17;;;28.90;;
59308;SDS011;48433;53.016;-2.260;2023-05-07T00:51:33;67.05;;;29.20;;
59308;SDS011;48433;53.016;-2.260;2023-05-07T00:54:02;66.70;;;29.67;;
59308;SDS011;48433;53.016;-2.260;2023-05-07T00:56:30;66.63;;;29.25;;
59308;SDS011;48433;53.016;-2.260;2023-05-07T00:58:59;55.33;;;26.33;;
59308;SDS011;48433;53.016;-2.260;2023-05-07T01:01:28;65.63;;;29.00;;
59308;SDS011;48433;53.016;-2.260;2023-05-07T01:03:56;62.72;;;29.17;;
59308;SDS011;48433;53.016;-2.260;2023-05-07T01:06:24;58.33;;;28.70;;
59308;SDS011;48433;53.016;-2.260;2023-05-07T01:08:55;52.17;;;26.17;;
59308;SDS011;48433;53.016;-2.260;2023-05-07T01:11:24;52.03;;;26.52;;
59308;SDS011;48433;53.016;-2.260;2023-05-07T01:13:52;54.28;;;26.65;;
59308;SDS011;48433;53.016;-2.260;2023-05-07T01:16:21;49.97;;;26.08;;
59308;SDS011;48433;53.016;-2.260;2023-05-07T01:18:49;50.50;;;25.08;;
59308;SDS011;48433;53.016;-2.260;2023-05-07T01:21:17;56.22;;;27.35;;
59308;SDS011;48433;53.016;-2.260;2023-05-07T01:23:45;45.03;;;24.15;;
59308;SDS011;48433;53.016;-2.260;2023-05-07T01:26:14;47.83;;;25.63;;
59308;SDS011;48433;53.016;-2.260;2023-05-07T01:28:44;43.47;;;24.90;;
59308;SDS011;48433;53.016;-2.260;2023-05-07T01:31:12;47.75;;;26.08;;
59308;SDS011;48433;53.016;-2.260;2023-05-07T01:33:41;42.47;;;24.58;;
59308;SDS011;48433;53.016;-2.260;2023-05-07T01:36:11;41.47;;;24.42;;
59308;SDS011;48433;53.016;-2.260;2023-05-07T01:38:40;38.58;;;23.45;;
59308;SDS011;48433;53.016;-2.260;2023-05-07T01:41:09;46.40;;;26.08;;
59308;SDS011;48433;53.016;-2.260;2023-05-07T01:43:37;43.25;;;24.40;;
59308;SDS011;48433;53.016;-2.260;2023-05-07T01:46:04;43.83;;;24.23;;
59308;SDS011;48433;53.016;-2.260;2023-05-07T01:48:32;40.85;;;22.55;;
59308;SDS011;48433;53.016;-2.260;2023-05-07T01:51:01;40.50;;;23.20;;
59308;SDS011;48433;53.016;-2.260;2023-05-07T01:53:34;37.85;;;23.45;;
59308;SDS011;48433;53.016;-2.260;2023-05-07T01:56:03;42.28;;;23.98;;
59308;SDS011;48433;53.016;-2.260;2023-05-07T01:58:33;38.22;;;23.08;;
59308;SDS011;48433;53.016;-2.260;2023-05-07T02:01:01;40.65;;;23.92;;
59308;SDS011;48433;53.016;-2.260;2023-05-07T02:03:29;41.78;;;25.33;;
59308;SDS011;48433;53.016;-2.260;2023-05-07T02:06:06;37.03;;;23.05;;
59308;SDS011;48433;53.016;-2.260;2023-05-07T02:08:37;40.88;;;22.92;;
59308;SDS011;48433;53.016;-2.260;2023-05-07T02:11:04;44.83;;;25.38;;
59308;SDS011;48433;53.016;-2.260;2023-05-07T02:13:34;39.92;;;25.48;;
59308;SDS011;48433;53.016;-2.260;2023-05-07T02:16:02;41.95;;;24.25;;
59308;SDS011;48433;53.016;-2.260;2023-05-07T02:18:30;45.78;;;26.05;;
59308;SDS011;48433;53.016;-2.260;2023-05-07T02:20:58;48.53;;;27.65;;
59308;SDS011;48433;53.016;-2.260;2023-05-07T02:23:25;45.08;;;26.00;;
59308;SDS011;48433;53.016;-2.260;2023-05-07T02:25:53;44.42;;;26.10;;
59308;SDS011;48433;53.016;-2.260;2023-05-07T02:28:21;44.75;;;25.40;;
59308;SDS011;48433;53.016;-2.260;2023-05-07T02:30:53;47.90;;;27.92;;
59308;SDS011;48433;53.016;-2.260;2023-05-07T02:33:21;52.20;;;28.77;;
59308;SDS011;48433;53.016;-2.260;2023-05-07T02:35:48;51.55;;;28.92;;
59308;SDS011;48433;53.016;-2.260;2023-05-07T02:38:16;51.92;;;28.70;;
59308;SDS011;48433;53.016;-2.260;2023-05-07T02:40:44;54.50;;;29.75;;
59308;SDS011;48433;53.016;-2.260;2023-05-07T02:43:12;54.47;;;30.85;;
59308;SDS011;48433;53.016;-2.260;2023-05-07T02:45:43;52.10;;;28.77;;
59308;SDS011;48433;53.016;-2.260;2023-05-07T02:48:11;62.53;;;33.03;;
59308;SDS011;48433;53.016;-2.260;2023-05-07T02:50:39;59.40;;;30.73;;
59308;SDS011;48433;53.016;-2.260;2023-05-07T02:53:07;57.78;;;33.10;;
59308;SDS011;48433;53.016;-2.260;2023-05-07T02:55:35;53.83;;;30.70;;
59308;SDS011;48433;53.016;-2.260;2023-05-07T02:58:02;53.65;;;29.67;;
59308;SDS011;48433;53.016;-2.260;2023-05-07T03:00:33;55.03;;;32.08;;
59308;SDS011;48433;53.016;-2.260;2023-05-07T03:03:28;55.00;;;30.55;;
59308;SDS011;48433;53.016;-2.260;2023-05-07T03:05:55;49.50;;;28.48;;
59308;SDS011;48433;53.016;-2.260;2023-05-07T03:08:23;50.30;;;28.80;;
59308;SDS011;48433;53.016;-2.260;2023-05-07T03:10:51;49.08;;;30.02;;
59308;SDS011;48433;53.016;-2.260;2023-05-07T03:13:19;46.88;;;27.30;;
59308;SDS011;48433;53.016;-2.260;2023-05-07T03:15:48;48.13;;;26.67;;
59308;SDS011;48433;53.016;-2.260;2023-05-07T03:18:15;46.63;;;26.25;;
59308;SDS011;48433;53.016;-2.260;2023-05-07T03:20:43;36.38;;;22.25;;
59308;SDS011;48433;53.016;-2.260;2023-05-07T03:23:11;39.70;;;22.30;;
59308;SDS011;48433;53.016;-2.260;2023-05-07T03:25:38;39.95;;;22.00;;
59308;SDS011;48433;53.016;-2.260;2023-05-07T03:28:06;36.42;;;19.50;;
59308;SDS011;48433;53.016;-2.260;2023-05-07T03:30:43;34.03;;;18.20;;
59308;SDS011;48433;53.016;-2.260;2023-05-07T03:33:10;28.55;;;17.25;;
59308;SDS011;48433;53.016;-2.260;2023-05-07T03:35:39;31.42;;;17.33;;
59308;SDS011;48433;53.016;-2.260;2023-05-07T03:38:06;32.63;;;17.00;;
59308;SDS011;48433;53.016;-2.260;2023-05-07T03:40:36;28.10;;;15.65;;
59308;SDS011;48433;53.016;-2.260;2023-05-07T03:43:04;29.17;;;16.90;;
59308;SDS011;48433;53.016;-2.260;2023-05-07T03:45:34;34.50;;;18.13;;
59308;SDS011;48433;53.016;-2.260;2023-05-07T03:48:13;28.90;;;16.83;;
59308;SDS011;48433;53.016;-2.260;2023-05-07T03:50:42;31.13;;;16.67;;
59308;SDS011;48433;53.016;-2.260;2023-05-07T03:53:10;34.08;;;17.83;;
59308;SDS011;48433;53.016;-2.260;2023-05-07T03:55:39;27.20;;;14.90;;
59308;SDS011;48433;53.016;-2.260;2023-05-07T03:58:06;26.83;;;15.35;;
59308;SDS011;48433;53.016;-2.260;2023-05-07T04:00:34;30.15;;;16.58;;
59308;SDS011;48433;53.016;-2.260;2023-05-07T04:03:15;26.65;;;15.15;;
59308;SDS011;48433;53.016;-2.260;2023-05-07T04:05:42;36.65;;;16.35;;
59308;SDS011;48433;53.016;-2.260;2023-05-07T04:08:10;28.20;;;15.15;;
59308;SDS011;48433;53.016;-2.260;2023-05-07T04:10:41;33.38;;;15.30;;
59308;SDS011;48433;53.016;-2.260;2023-05-07T04:13:10;28.17;;;14.10;;
59308;SDS011;48433;53.016;-2.260;2023-05-07T04:15:38;25.38;;;14.48;;
59308;SDS011;48433;53.016;-2.260;2023-05-07T04:18:11;28.40;;;15.27;;
59308;SDS011;48433;53.016;-2.260;2023-05-07T04:20:41;27.48;;;15.70;;
59308;SDS011;48433;53.016;-2.260;2023-05-07T04:23:12;34.22;;;14.40;;
59308;SDS011;48433;53.016;-2.260;2023-05-07T04:25:40;32.88;;;15.57;;
59308;SDS011;48433;53.016;-2.260;2023-05-07T04:28:20;30.10;;;15.48;;
59308;SDS011;48433;53.016;-2.260;2023-05-07T04:30:49;28.15;;;15.30;;
59308;SDS011;48433;53.016;-2.260;2023-05-07T04:33:16;30.23;;;14.15;;
59308;SDS011;48433;53.016;-2.260;2023-05-07T04:35:45;27.88;;;13.60;;
59308;SDS011;48433;53.016;-2.260;2023-05-07T04:38:13;30.63;;;14.43;;
59308;SDS011;48433;53.016;-2.260;2023-05-07T04:40:42;31.63;;;15.25;;
59308;SDS011;48433;53.016;-2.260;2023-05-07T04:43:13;28.75;;;15.02;;
59308;SDS011;48433;53.016;-2.260;2023-05-07T04:45:46;26.90;;;14.55;;
59308;SDS011;48433;53.016;-2.260;2023-05-07T04:48:14;31.17;;;15.00;;
59308;SDS011;48433;53.016;-2.260;2023-05-07T04:50:42;31.52;;;15.50;;
59308;SDS011;48433;53.016;-2.260;2023-05-07T04:53:11;28.63;;;14.98;;
59308;SDS011;48433;53.016;-2.260;2023-05-07T04:55:38;35.20;;;16.05;;
59308;SDS011;48433;53.016;-2.260;2023-05-07T04:58:07;32.08;;;16.38;;
59308;SDS011;48433;53.016;-2.260;2023-05-07T05:00:36;31.38;;;17.63;;
59308;SDS011;48433;53.016;-2.260;2023-05-07T05:03:06;35.13;;;16.08;;
59308;SDS011;48433;53.016;-2.260;2023-05-07T05:05:35;31.67;;;17.08;;
59308;SDS011;48433;53.016;-2.260;2023-05-07T05:08:03;33.85;;;16.27;;
59308;SDS011;48433;53.016;-2.260;2023-05-07T05:10:31;32.70;;;17.05;;
59308;SDS011;48433;53.016;-2.260;2023-05-07T05:12:59;32.75;;;15.90;;
59308;SDS011;48433;53.016;-2.260;2023-05-07T05:15:27;31.98;;;15.80;;
59308;SDS011;48433;53.016;-2.260;2023-05-07T05:17:55;25.75;;;15.15;;
59308;SDS011;48433;53.016;-2.260;2023-05-07T05:20:22;28.80;;;15.40;;
59308;SDS011;48433;53.016;-2.260;2023-05-07T05:22:50;26.40;;;14.77;;
59308;SDS011;48433;53.016;-2.260;2023-05-07T05:25:18;29.00;;;13.85;;
59308;SDS011;48433;53.016;-2.260;2023-05-07T05:27:46;27.13;;;15.45;;
59308;SDS011;48433;53.016;-2.260;2023-05-07T05:30:14;30.23;;;15.75;;
59308;SDS011;48433;53.016;-2.260;2023-05-07T05:32:45;28.08;;;14.93;;
59308;SDS011;48433;53.016;-2.260;2023-05-07T05:35:13;23.30;;;13.80;;
59308;SDS011;48433;53.016;-2.260;2023-05-07T05:37:42;30.60;;;15.18;;
59308;SDS011;48433;53.016;-2.260;2023-05-07T05:40:10;26.23;;;14.45;;
59308;SDS011;48433;53.016;-2.260;2023-05-07T05:42:38;28.92;;;15.63;;
59308;SDS011;48433;53.016;-2.260;2023-05-07T05:45:07;25.02;;;14.13;;
59308;SDS011;48433;53.016;-2.260;2023-05-07T05:47:35;25.25;;;13.50;;
59308;SDS011;48433;53.016;-2.260;2023-05-07T05:50:05;26.38;;;13.88;;
59308;SDS011;48433;53.016;-2.260;2023-05-07T05:52:33;23.20;;;11.82;;
59308;SDS011;48433;53.016;-2.260;2023-05-07T05:55:02;23.55;;;11.75;;
59308;SDS011;48433;53.016;-2.260;2023-05-07T05:57:30;20.02;;;12.25;;
59308;SDS011;48433;53.016;-2.260;2023-05-07T05:59:58;23.00;;;12.02;;
59308;SDS011;48433;53.016;-2.260;2023-05-07T06:02:25;23.77;;;11.90;;
59308;SDS011;48433;53.016;-2.260;2023-05-07T06:04:53;26.38;;;11.30;;
59308;SDS011;48433;53.016;-2.260;2023-05-07T06:07:22;20.30;;;12.00;;
59308;SDS011;48433;53.016;-2.260;2023-05-07T06:09:50;28.90;;;13.20;;
59308;SDS011;48433;53.016;-2.260;2023-05-07T06:12:18;23.60;;;11.60;;
59308;SDS011;48433;53.016;-2.260;2023-05-07T06:14:46;21.95;;;10.93;;
59308;SDS011;48433;53.016;-2.260;2023-05-07T06:17:14;26.40;;;10.02;;
59308;SDS011;48433;53.016;-2.260;2023-05-07T06:19:43;20.08;;;10.38;;
59308;SDS011;48433;53.016;-2.260;2023-05-07T06:22:12;24.10;;;11.70;;
59308;SDS011;48433;53.016;-2.260;2023-05-07T06:24:39;19.83;;;10.90;;
59308;SDS011;48433;53.016;-2.260;2023-05-07T06:27:08;18.50;;;10.75;;
59308;SDS011;48433;53.016;-2.260;2023-05-07T06:29:36;20.05;;;10.00;;
59308;SDS011;48433;53.016;-2.260;2023-05-07T06:32:12;16.73;;;8.80;;
59308;SDS011;48433;53.016;-2.260;2023-05-07T06:34:43;17.67;;;7.85;;
59308;SDS011;48433;53.016;-2.260;2023-05-07T06:37:11;17.27;;;7.70;;
59308;SDS011;48433;53.016;-2.260;2023-05-07T06:39:53;17.58;;;7.65;;
59308;SDS011;48433;53.016;-2.260;2023-05-07T06:42:22;14.45;;;7.95;;
59308;SDS011;48433;53.016;-2.260;2023-05-07T06:44:50;12.15;;;7.40;;
59308;SDS011;48433;53.016;-2.260;2023-05-07T06:47:18;14.93;;;6.60;;
59308;SDS011;48433;53.016;-2.260;2023-05-07T06:49:50;15.25;;;6.30;;
59308;SDS011;48433;53.016;-2.260;2023-05-07T06:52:20;16.07;;;6.33;;
59308;SDS011;48433;53.016;-2.260;2023-05-07T06:54:50;14.15;;;6.15;;
59308;SDS011;48433;53.016;-2.260;2023-05-07T06:57:20;13.43;;;5.40;;
59308;SDS011;48433;53.016;-2.260;2023-05-07T06:59:48;11.65;;;5.68;;
59308;SDS011;48433;53.016;-2.260;2023-05-07T07:02:16;13.75;;;5.72;;
59308;SDS011;48433;53.016;-2.260;2023-05-07T07:04:46;16.08;;;5.47;;
59308;SDS011;48433;53.016;-2.260;2023-05-07T07:07:14;13.95;;;4.55;;
59308;SDS011;48433;53.016;-2.260;2023-05-07T07:09:45;11.27;;;5.10;;
59308;SDS011;48433;53.016;-2.260;2023-05-07T07:12:15;11.27;;;5.30;;
59308;SDS011;48433;53.016;-2.260;2023-05-07T07:14:43;13.85;;;5.50;;
59308;SDS011;48433;53.016;-2.260;2023-05-07T07:17:12;16.17;;;5.65;;
59308;SDS011;48433;53.016;-2.260;2023-05-07T07:19:39;13.45;;;5.45;;
59308;SDS011;48433;53.016;-2.260;2023-05-07T07:22:08;12.85;;;5.38;;
59308;SDS011;48433;53.016;-2.260;2023-05-07T07:24:37;11.57;;;4.60;;
59308;SDS011;48433;53.016;-2.260;2023-05-07T07:27:08;12.07;;;5.55;;
59308;SDS011;48433;53.016;-2.260;2023-05-07T07:29:36;14.35;;;5.32;;
59308;SDS011;48433;53.016;-2.260;2023-05-07T07:32:04;13.57;;;5.15;;
59308;SDS011;48433;53.016;-2.260;2023-05-07T07:34:32;14.38;;;5.70;;
59308;SDS011;48433;53.016;-2.260;2023-05-07T07:37:01;15.25;;;5.30;;
59308;SDS011;48433;53.016;-2.260;2023-05-07T07:39:33;13.80;;;5.80;;
59308;SDS011;48433;53.016;-2.260;2023-05-07T07:42:02;14.93;;;5.20;;
59308;SDS011;48433;53.016;-2.260;2023-05-07T07:44:30;11.75;;;6.07;;
59308;SDS011;48433;53.016;-2.260;2023-05-07T07:47:04;11.45;;;5.45;;
59308;SDS011;48433;53.016;-2.260;2023-05-07T07:49:32;13.77;;;5.80;;
59308;SDS011;48433;53.016;-2.260;2023-05-07T07:52:03;10.32;;;4.88;;
59308;SDS011;48433;53.016;-2.260;2023-05-07T07:54:34;15.05;;;7.43;;
59308;SDS011;48433;53.016;-2.260;2023-05-07T07:57:02;10.57;;;5.05;;
59308;SDS011;48433;53.016;-2.260;2023-05-07T07:59:32;10.85;;;5.05;;
59308;SDS011;48433;53.016;-2.260;2023-05-07T08:01:59;13.27;;;5.05;;
59308;SDS011;48433;53.016;-2.260;2023-05-07T08:04:29;11.57;;;5.00;;
59308;SDS011;48433;53.016;-2.260;2023-05-07T08:07:03;15.85;;;5.50;;
59308;SDS011;48433;53.016;-2.260;2023-05-07T08:09:34;11.85;;;4.05;;
59308;SDS011;48433;53.016;-2.260;2023-05-07T08:12:04;10.00;;;4.28;;
59308;SDS011;48433;53.016;-2.260;2023-05-07T08:17:05;11.77;;;4.78;;
59308;SDS011;48433;53.016;-2.260;2023-05-07T08:19:35;13.13;;;4.32;;
59308;SDS011;48433;53.016;-2.260;2023-05-07T08:22:03;13.18;;;4.18;;
59308;SDS011;48433;53.016;-2.260;2023-05-07T08:24:33;14.20;;;4.25;;
59308;SDS011;48433;53.016;-2.260;2023-05-07T08:27:01;10.68;;;4.22;;
59308;SDS011;48433;53.016;-2.260;2023-05-07T08:29:29;12.48;;;3.72;;
59308;SDS011;48433;53.016;-2.260;2023-05-07T08:31:57;10.85;;;3.28;;
59308;SDS011;48433;53.016;-2.260;2023-05-07T08:34:25;11.07;;;4.03;;
59308;SDS011;48433;53.016;-2.260;2023-05-07T08:36:54;12.27;;;4.05;;
59308;SDS011;48433;53.016;-2.260;2023-05-07T08:39:23;14.13;;;4.18;;
59308;SDS011;48433;53.016;-2.260;2023-05-07T08:41:54;12.32;;;3.38;;
59308;SDS011;48433;53.016;-2.260;2023-05-07T08:44:26;13.05;;;3.55;;
59308;SDS011;48433;53.016;-2.260;2023-05-07T08:46:56;11.73;;;3.65;;
59308;SDS011;48433;53.016;-2.260;2023-05-07T08:49:27;9.40;;;3.92;;
59308;SDS011;48433;53.016;-2.260;2023-05-07T08:51:55;13.68;;;5.15;;
59308;SDS011;48433;53.016;-2.260;2023-05-07T08:54:24;11.50;;;4.35;;
59308;SDS011;48433;53.016;-2.260;2023-05-07T08:56:53;14.00;;;4.78;;
59308;SDS011;48433;53.016;-2.260;2023-05-07T08:59:21;13.82;;;5.28;;
59308;SDS011;48433;53.016;-2.260;2023-05-07T09:01:48;12.95;;;3.90;;
59308;SDS011;48433;53.016;-2.260;2023-05-07T09:04:16;15.80;;;4.45;;
59308;SDS011;48433;53.016;-2.260;2023-05-07T09:06:45;12.68;;;4.57;;
59308;SDS011;48433;53.016;-2.260;2023-05-07T09:09:16;11.75;;;4.25;;
59308;SDS011;48433;53.016;-2.260;2023-05-07T09:11:46;10.98;;;3.35;;
59308;SDS011;48433;53.016;-2.260;2023-05-07T09:14:16;11.23;;;3.73;;
59308;SDS011;48433;53.016;-2.260;2023-05-07T09:16:45;12.00;;;3.42;;
59308;SDS011;48433;53.016;-2.260;2023-05-07T09:19:14;8.10;;;3.70;;
59308;SDS011;48433;53.016;-2.260;2023-05-07T09:21:46;11.55;;;3.63;;
59308;SDS011;48433;53.016;-2.260;2023-05-07T09:24:15;11.45;;;3.58;;
59308;SDS011;48433;53.016;-2.260;2023-05-07T09:26:44;9.43;;;3.17;;
59308;SDS011;48433;53.016;-2.260;2023-05-07T09:29:15;11.45;;;3.50;;
59308;SDS011;48433;53.016;-2.260;2023-05-07T09:31:44;9.02;;;2.92;;
59308;SDS011;48433;53.016;-2.260;2023-05-07T09:34:16;12.32;;;3.20;;
59308;SDS011;48433;53.016;-2.260;2023-05-07T09:36:45;7.70;;;3.15;;
59308;SDS011;48433;53.016;-2.260;2023-05-07T09:39:14;8.73;;;3.83;;
59308;SDS011;48433;53.016;-2.260;2023-05-07T09:41:45;11.48;;;4.93;;
59308;SDS011;48433;53.016;-2.260;2023-05-07T09:44:20;8.23;;;3.25;;
59308;SDS011;48433;53.016;-2.260;2023-05-07T09:46:53;7.73;;;2.70;;
59308;SDS011;48433;53.016;-2.260;2023-05-07T09:49:33;10.50;;;2.97;;
59308;SDS011;48433;53.016;-2.260;2023-05-07T09:52:07;9.70;;;2.97;;
59308;SDS011;48433;53.016;-2.260;2023-05-07T09:54:42;7.93;;;2.65;;
59308;SDS011;48433;53.016;-2.260;2023-05-07T09:57:13;8.55;;;3.72;;
59308;SDS011;48433;53.016;-2.260;2023-05-07T09:59:44;8.10;;;2.83;;
59308;SDS011;48433;53.016;-2.260;2023-05-07T10:02:16;9.90;;;3.13;;
59308;SDS011;48433;53.016;-2.260;2023-05-07T10:04:50;8.20;;;2.88;;
59308;SDS011;48433;53.016;-2.260;2023-05-07T10:07:22;9.38;;;2.53;;
59308;SDS011;48433;53.016;-2.260;2023-05-07T10:09:55;12.02;;;3.22;;
59308;SDS011;48433;53.016;-2.260;2023-05-07T10:12:32;7.95;;;3.00;;
59308;SDS011;48433;53.016;-2.260;2023-05-07T10:15:09;8.80;;;3.08;;
59308;SDS011;48433;53.016;-2.260;2023-05-07T10:20:10;6.50;;;2.33;;
59308;SDS011;48433;53.016;-2.260;2023-05-07T10:22:41;8.65;;;2.88;;
59308;SDS011;48433;53.016;-2.260;2023-05-07T10:25:16;9.32;;;2.65;;
59308;SDS011;48433;53.016;-2.260;2023-05-07T10:27:47;10.63;;;2.70;;
59308;SDS011;48433;53.016;-2.260;2023-05-07T10:30:31;9.98;;;3.47;;
59308;SDS011;48433;53.016;-2.260;2023-05-07T10:33:24;9.00;;;3.88;;
59308;SDS011;48433;53.016;-2.260;2023-05-07T10:35:55;6.72;;;2.25;;
59308;SDS011;48433;53.016;-2.260;2023-05-07T10:38:28;7.90;;;2.63;;
59308;SDS011;48433;53.016;-2.260;2023-05-07T10:40:59;6.93;;;2.60;;
59308;SDS011;48433;53.016;-2.260;2023-05-07T10:43:42;7.38;;;2.63;;
59308;SDS011;48433;53.016;-2.260;2023-05-07T10:46:19;6.90;;;2.35;;
59308;SDS011;48433;53.016;-2.260;2023-05-07T10:51:45;10.05;;;2.92;;
59308;SDS011;48433;53.016;-2.260;2023-05-07T10:54:45;13.95;;;3.38;;
59308;SDS011;48433;53.016;-2.260;2023-05-07T11:00:02;4.75;;;2.00;;
59308;SDS011;48433;53.016;-2.260;2023-05-07T11:05:29;7.85;;;2.38;;
59308;SDS011;48433;53.016;-2.260;2023-05-07T11:08:21;9.93;;;2.70;;
59308;SDS011;48433;53.016;-2.260;2023-05-07T11:10:58;5.72;;;2.03;;
59308;SDS011;48433;53.016;-2.260;2023-05-07T11:13:41;7.78;;;2.47;;
59308;SDS011;48433;53.016;-2.260;2023-05-07T11:16:34;9.13;;;2.33;;
59308;SDS011;48433;53.016;-2.260;2023-05-07T11:19:16;4.78;;;1.95;;
59308;SDS011;48433;53.016;-2.260;2023-05-07T11:21:47;6.30;;;2.00;;
59308;SDS011;48433;53.016;-2.260;2023-05-07T11:24:38;7.97;;;2.17;;
59308;SDS011;48433;53.016;-2.260;2023-05-07T11:27:11;7.07;;;2.28;;
59308;SDS011;48433;53.016;-2.260;2023-05-07T11:29:39;6.30;;;2.33;;
59308;SDS011;48433;53.016;-2.260;2023-05-07T11:32:14;6.13;;;2.08;;
59308;SDS011;48433;53.016;-2.260;2023-05-07T11:34:52;5.72;;;1.98;;
59308;SDS011;48433;53.016;-2.260;2023-05-07T11:37:21;8.13;;;2.13;;
59308;SDS011;48433;53.016;-2.260;2023-05-07T11:40:04;5.38;;;2.13;;
59308;SDS011;48433;53.016;-2.260;2023-05-07T11:42:34;6.82;;;2.13;;
59308;SDS011;48433;53.016;-2.260;2023-05-07T11:45:05;5.65;;;2.05;;
59308;SDS011;48433;53.016;-2.260;2023-05-07T11:47:34;9.50;;;2.58;;
59308;SDS011;48433;53.016;-2.260;2023-05-07T11:50:03;7.05;;;2.20;;
59308;SDS011;48433;53.016;-2.260;2023-05-07T11:52:33;5.85;;;1.90;;
59308;SDS011;48433;53.016;-2.260;2023-05-07T11:55:01;6.68;;;2.33;;
59308;SDS011;48433;53.016;-2.260;2023-05-07T11:57:32;6.47;;;2.33;;
59308;SDS011;48433;53.016;-2.260;2023-05-07T12:00:00;7.28;;;2.25;;
59308;SDS011;48433;53.016;-2.260;2023-05-07T12:02:38;7.10;;;2.15;;
59308;SDS011;48433;53.016;-2.260;2023-05-07T12:05:06;6.25;;;2.20;;
59308;SDS011;48433;53.016;-2.260;2023-05-07T12:07:34;6.00;;;2.28;;
59308;SDS011;48433;53.016;-2.260;2023-05-07T12:10:05;6.35;;;2.17;;
59308;SDS011;48433;53.016;-2.260;2023-05-07T12:12:40;6.47;;;2.22;;
59308;SDS011;48433;53.016;-2.260;2023-05-07T12:15:13;8.65;;;2.47;;
59308;SDS011;48433;53.016;-2.260;2023-05-07T12:17:49;7.57;;;2.42;;
59308;SDS011;48433;53.016;-2.260;2023-05-07T12:20:17;5.68;;;2.08;;
59308;SDS011;48433;53.016;-2.260;2023-05-07T12:22:46;7.40;;;2.42;;
59308;SDS011;48433;53.016;-2.260;2023-05-07T12:27:47;7.10;;;2.25;;
59308;SDS011;48433;53.016;-2.260;2023-05-07T12:30:19;7.22;;;2.40;;
59308;SDS011;48433;53.016;-2.260;2023-05-07T12:32:46;5.90;;;1.90;;
59308;SDS011;48433;53.016;-2.260;2023-05-07T12:35:32;5.50;;;2.03;;
59308;SDS011;48433;53.016;-2.260;2023-05-07T12:38:03;4.38;;;1.33;;
59308;SDS011;48433;53.016;-2.260;2023-05-07T12:40:36;8.88;;;2.38;;
59308;SDS011;48433;53.016;-2.260;2023-05-07T12:43:05;7.50;;;2.20;;
59308;SDS011;48433;53.016;-2.260;2023-05-07T12:45:41;6.20;;;2.30;;
59308;SDS011;48433;53.016;-2.260;2023-05-07T12:48:09;6.90;;;1.70;;
59308;SDS011;48433;53.016;-2.260;2023-05-07T12:50:37;7.43;;;2.00;;
59308;SDS011;48433;53.016;-2.260;2023-05-07T12:53:06;6.97;;;2.00;;
59308;SDS011;48433;53.016;-2.260;2023-05-07T12:55:44;5.78;;;1.75;;
59308;SDS011;48433;53.016;-2.260;2023-05-07T13:00:48;6.28;;;2.00;;
59308;SDS011;48433;53.016;-2.260;2023-05-07T13:06:09;6.50;;;2.00;;
59308;SDS011;48433;53.016;-2.260;2023-05-07T13:08:39;6.97;;;2.17;;
59308;SDS011;48433;53.016;-2.260;2023-05-07T13:11:10;5.80;;;1.98;;
59308;SDS011;48433;53.016;-2.260;2023-05-07T13:13:39;6.47;;;1.95;;
59308;SDS011;48433;53.016;-2.260;2023-05-07T13:16:08;7.93;;;2.45;;
59308;SDS011;48433;53.016;-2.260;2023-05-07T13:18:37;7.50;;;2.03;;
59308;SDS011;48433;53.016;-2.260;2023-05-07T13:21:06;6.20;;;1.73;;
59308;SDS011;48433;53.016;-2.260;2023-05-07T13:23:34;7.82;;;1.98;;
59308;SDS011;48433;53.016;-2.260;2023-05-07T13:26:02;7.63;;;2.00;;
59308;SDS011;48433;53.016;-2.260;2023-05-07T13:28:37;6.65;;;1.92;;
59308;SDS011;48433;53.016;-2.260;2023-05-07T13:31:05;7.50;;;2.17;;
59308;SDS011;48433;53.016;-2.260;2023-05-07T13:33:32;7.38;;;2.05;;
59308;SDS011;48433;53.016;-2.260;2023-05-07T13:36:00;6.93;;;2.17;;
59308;SDS011;48433;53.016;-2.260;2023-05-07T13:38:29;6.53;;;1.67;;
59308;SDS011;48433;53.016;-2.260;2023-05-07T13:40:57;8.88;;;1.70;;
59308;SDS011;48433;53.016;-2.260;2023-05-07T13:43:25;5.07;;;1.85;;
59308;SDS011;48433;53.016;-2.260;2023-05-07T13:45:52;8.65;;;2.17;;
59308;SDS011;48433;53.016;-2.260;2023-05-07T13:48:20;5.00;;;1.50;;
59308;SDS011;48433;53.016;-2.260;2023-05-07T13:50:48;7.57;;;1.77;;
59308;SDS011;48433;53.016;-2.260;2023-05-07T13:53:15;6.35;;;1.95;;
59308;SDS011;48433;53.016;-2.260;2023-05-07T13:55:45;4.97;;;1.63;;
59308;SDS011;48433;53.016;-2.260;2023-05-07T13:58:13;7.10;;;1.95;;
59308;SDS011;48433;53.016;-2.260;2023-05-07T14:00:41;4.35;;;1.50;;
59308;SDS011;48433;53.016;-2.260;2023-05-07T14:03:09;6.25;;;2.05;;
59308;SDS011;48433;53.016;-2.260;2023-05-07T14:05:37;4.45;;;1.67;;
59308;SDS011;48433;53.016;-2.260;2023-05-07T14:08:04;6.72;;;1.88;;
59308;SDS011;48433;53.016;-2.260;2023-05-07T14:10:32;6.30;;;2.00;;
59308;SDS011;48433;53.016;-2.260;2023-05-07T14:13:01;6.28;;;1.75;;
59308;SDS011;48433;53.016;-2.260;2023-05-07T14:15:29;9.02;;;3.05;;
59308;SDS011;48433;53.016;-2.260;2023-05-07T14:17:57;7.68;;;2.28;;
59308;SDS011;48433;53.016;-2.260;2023-05-07T14:20:26;6.40;;;2.05;;
59308;SDS011;48433;53.016;-2.260;2023-05-07T14:22:53;5.72;;;1.73;;
59308;SDS011;48433;53.016;-2.260;2023-05-07T14:25:24;5.53;;;2.00;;
59308;SDS011;48433;53.016;-2.260;2023-05-07T14:27:51;5.75;;;1.70;;
59308;SDS011;48433;53.016;-2.260;2023-05-07T14:30:19;5.05;;;1.95;;
59308;SDS011;48433;53.016;-2.260;2023-05-07T14:32:46;6.57;;;1.50;;
59308;SDS011;48433;53.016;-2.260;2023-05-07T14:35:14;4.63;;;1.65;;
59308;SDS011;48433;53.016;-2.260;2023-05-07T14:37:42;4.55;;;1.48;;
59308;SDS011;48433;53.016;-2.260;2023-05-07T14:40:10;4.90;;;1.60;;
59308;SDS011;48433;53.016;-2.260;2023-05-07T14:42:40;5.10;;;1.50;;
59308;SDS011;48433;53.016;-2.260;2023-05-07T14:45:07;5.82;;;1.63;;
59308;SDS011;48433;53.016;-2.260;2023-05-07T14:47:36;5.05;;;1.30;;
59308;SDS011;48433;53.016;-2.260;2023-05-07T14:50:04;4.90;;;1.42;;
59308;SDS011;48433;53.016;-2.260;2023-05-07T14:52:31;6.07;;;1.60;;
59308;SDS011;48433;53.016;-2.260;2023-05-07T14:54:59;4.68;;;1.23;;
59308;SDS011;48433;53.016;-2.260;2023-05-07T14:57:27;5.40;;;1.58;;
59308;SDS011;48433;53.016;-2.260;2023-05-07T14:59:59;5.50;;;1.35;;